Time;durP1;ratioP1;P1;durP2;ratioP2;P2;SDS_P1;SDS_P2;PMS_P1;PMS_P2;Temp;Humidity;BMP_temperature;BMP_pressure;BME280_temperature;BME280_humidity;BME280_pressure;Samples;Min_cycle;Max_cycle;Signal;HPM_P1;HPM_P2
2022/06/20 00:01:13;;;;;;;;;33.00;29.33;;;;;20.12;66.53;100723.44;5096956;27;45497;-69
2022/06/20 00:03:41;;;;;;;;;34.33;31.67;;;;;19.64;65.04;100648.06;5089494;27;45921;-71
2022/06/20 00:06:15;;;;;;;;;37.00;34.33;;;;;20.11;65.77;100735.28;5098988;27;45510;-70
2022/06/20 00:08:41;;;;;;;;;35.33;32.33;;;;;20.15;65.43;100736.50;5091713;27;48842;-69
2022/06/20 00:11:18;;;;;;;;;37.67;33.33;;;;;20.00;66.28;100698.91;5099207;27;45315;-68
2022/06/20 00:13:46;;;;;;;;;38.67;32.67;;;;;20.14;66.03;100726.75;5080489;27;45549;-70
2022/06/20 00:16:15;;;;;;;;;38.33;33.33;;;;;20.18;66.03;100733.41;5078809;27;45385;-70
2022/06/20 00:18:40;;;;;;;;;36.00;33.33;;;;;20.06;65.75;100721.56;5078177;27;46515;-71
2022/06/20 00:21:10;;;;;;;;;42.00;33.67;;;;;19.89;66.37;100704.94;5087015;27;45273;-69
2022/06/20 00:23:36;;;;;;;;;30.33;29.67;;;;;20.01;66.44;100729.44;5081526;27;45430;-70
2022/06/20 00:26:01;;;;;;;;;38.00;31.00;;;;;19.79;66.87;100704.50;5077246;28;45355;-68
2022/06/20 00:28:26;;;;;;;;;34.33;33.33;;;;;19.87;66.79;100707.03;5077440;27;45623;-72
2022/06/20 00:30:52;;;;;;;;;37.67;32.33;;;;;20.01;66.99;100718.63;5096143;27;45545;-70
2022/06/20 00:33:17;;;;;;;;;35.00;31.67;;;;;19.34;66.43;100598.19;5096940;27;45822;-68
2022/06/20 00:35:43;;;;;;;;;33.33;31.67;;;;;19.98;67.06;100706.38;5098193;27;45434;-69
2022/06/20 00:38:16;;;;;;;;;31.00;29.67;;;;;19.94;66.87;100697.06;5086185;27;45668;-70
2022/06/20 00:40:54;;;;;;;;;33.33;30.00;;;;;19.30;67.97;100578.06;5098997;27;45383;-69
2022/06/20 00:43:52;;;;;;;;;39.33;34.33;;;;;19.97;67.92;100653.47;5096809;27;45350;-70
2022/06/20 00:46:26;;;;;;;;;31.67;30.00;;;;;19.71;67.49;100602.19;5080936;27;45596;-70
2022/06/20 00:49:05;;;;;;;;;33.33;30.00;;;;;19.98;68.35;100654.28;5078754;27;46169;-70
2022/06/20 00:51:30;;;;;;;;;37.33;33.33;;;;;20.02;68.18;100671.72;5078814;27;45449;-71
2022/06/20 00:54:16;;;;;;;;;38.33;33.67;;;;;19.95;68.71;100681.69;5078251;28;45484;-70
2022/06/20 00:56:55;;;;;;;;;27.67;26.67;;;;;20.04;68.20;100697.50;5078261;28;45493;-70
2022/06/20 00:59:36;;;;;;;;;37.00;33.00;;;;;20.00;67.45;100711.56;5078113;27;45481;-69
2022/06/20 01:02:06;;;;;;;;;33.67;31.33;;;;;19.71;67.46;100670.47;5076527;28;45354;-69
2022/06/20 01:04:39;;;;;;;;;32.33;30.67;;;;;20.25;67.28;100750.44;5077938;27;45189;-71
2022/06/20 01:07:09;;;;;;;;;27.33;25.00;;;;;20.12;66.79;100734.22;5077828;27;45646;-68
2022/06/20 01:09:39;;;;;;;;;39.67;32.00;;;;;19.63;66.63;100657.19;5086975;27;45627;-70
2022/06/20 01:12:11;;;;;;;;;26.00;25.33;;;;;19.87;66.80;100704.31;5091758;27;45226;-71
2022/06/20 01:14:41;;;;;;;;;31.67;31.67;;;;;20.24;66.49;100758.75;5077811;27;45346;-71
2022/06/20 01:17:19;;;;;;;;;31.67;29.00;;;;;20.15;67.34;100733.81;5078169;27;45245;-71
2022/06/20 01:20:03;;;;;;;;;32.67;29.33;;;;;20.25;66.78;100753.16;5077355;27;45482;-70
2022/06/20 01:22:42;;;;;;;;;34.33;31.00;;;;;20.23;67.20;100762.50;5091375;27;45295;-70
2022/06/20 01:25:21;;;;;;;;;36.67;34.00;;;;;20.19;66.89;100743.16;5092935;27;45410;-70
2022/06/20 01:27:50;;;;;;;;;33.67;29.67;;;;;20.15;67.07;100733.81;5093529;27;45588;-70
2022/06/20 01:30:17;;;;;;;;;30.67;30.67;;;;;19.75;67.38;100663.63;5076219;28;46535;-71
2022/06/20 01:32:44;;;;;;;;;26.00;23.67;;;;;19.91;67.85;100680.44;5077788;27;45291;-68
2022/06/20 01:37:23;;;;;;;;;34.00;32.00;;;;;19.89;68.20;100690.63;5077714;27;45385;-72
2022/06/20 01:38:03;;;;;;;;;37.00;31.67;;;;;19.87;68.52;100668.41;5077933;28;45450;-69
2022/06/20 01:40:30;;;;;;;;;34.00;31.67;;;;;19.86;68.21;100647.88;5077151;27;45758;-70
2022/06/20 01:42:55;;;;;;;;;34.00;30.67;;;;;19.50;68.52;100587.00;5077399;27;45259;-73
2022/06/20 01:48:17;;;;;;;;;28.00;28.00;;;;;19.83;68.17;100629.41;5077459;28;45215;-70
2022/06/20 01:50:45;;;;;;;;;25.33;25.33;;;;;19.78;68.50;100600.31;5077121;27;46439;-71
2022/06/20 01:53:15;;;;;;;;;25.67;25.67;;;;;19.63;68.67;100562.78;5077356;27;45344;-69
2022/06/20 01:55:43;;;;;;;;;30.67;27.67;;;;;19.65;68.80;100530.22;5077316;27;45272;-71
2022/06/20 01:58:18;;;;;;;;;32.33;27.67;;;;;19.53;69.72;100467.94;5075791;28;45567;-71
2022/06/20 02:00:44;;;;;;;;;31.00;29.00;;;;;19.49;69.66;100412.78;5076286;27;46462;-70
2022/06/20 02:03:19;;;;;;;;;32.67;30.00;;;;;19.42;70.32;100345.41;5094599;27;45311;-70
2022/06/20 02:05:48;;;;;;;;;28.00;28.00;;;;;18.06;70.19;100120.00;5096868;27;45750;-73
2022/06/20 02:08:18;;;;;;;;;27.67;25.33;;;;;19.34;70.61;100334.84;5078933;27;45281;-70
2022/06/20 02:10:55;;;;;;;;;31.00;28.00;;;;;19.14;69.67;100321.41;5095877;27;47133;-70
2022/06/20 02:13:23;;;;;;;;;28.67;27.67;;;;;19.23;69.95;100348.97;5095244;27;45405;-71
2022/06/20 02:15:53;;;;;;;;;35.33;29.67;;;;;18.78;70.00;100312.94;5082993;27;45264;-71
2022/06/20 02:18:20;;;;;;;;;34.00;32.67;;;;;18.34;70.61;100270.47;5110172;27;46377;-68
2022/06/20 02:20:50;;;;;;;;;23.33;22.00;;;;;19.13;70.26;100407.84;5097176;27;45425;-70
2022/06/20 02:23:22;;;;;;;;;27.00;24.33;;;;;19.17;70.33;100432.50;5096403;27;45380;-70
2022/06/20 02:25:50;;;;;;;;;28.33;27.33;;;;;18.93;70.29;100397.06;5076561;28;45472;-71
2022/06/20 02:28:40;;;;;;;;;28.33;26.00;;;;;19.17;69.32;100459.47;5077043;27;45173;-69
2022/06/20 02:31:08;;;;;;;;;30.00;29.33;;;;;19.26;69.78;100498.66;5077686;27;45767;-71
2022/06/20 02:33:34;;;;;;;;;29.33;25.00;;;;;19.29;69.74;100504.47;5080493;27;45509;-70
2022/06/20 02:36:02;;;;;;;;;26.33;25.33;;;;;19.39;69.97;100531.81;5080700;27;45243;-72
2022/06/20 02:38:28;;;;;;;;;26.00;24.33;;;;;19.29;69.07;100509.03;5080691;27;45516;-70
2022/06/20 02:40:56;;;;;;;;;30.67;27.67;;;;;19.67;69.26;100561.34;5087939;27;45468;-70
2022/06/20 02:43:36;;;;;;;;;29.00;24.00;;;;;19.79;68.73;100575.00;5098842;27;45557;-70
2022/06/20 02:46:05;;;;;;;;;26.00;24.33;;;;;19.89;67.78;100580.00;5114113;27;45457;-69
2022/06/20 02:48:33;;;;;;;;;24.00;23.67;;;;;19.96;67.90;100578.09;5089950;27;45302;-70
2022/06/20 02:51:03;;;;;;;;;25.33;22.67;;;;;20.09;68.05;100591.59;5100332;27;46207;-70
2022/06/20 02:53:54;;;;;;;;;25.33;22.00;;;;;20.20;67.94;100599.03;5094942;27;46203;-69
2022/06/20 02:56:22;;;;;;;;;27.67;23.33;;;;;20.11;68.22;100583.28;5075474;27;45441;-70
2022/06/20 02:58:53;;;;;;;;;26.67;21.33;;;;;20.35;68.19;100604.22;5100561;27;45309;-71
2022/06/20 03:01:34;;;;;;;;;27.67;26.67;;;;;20.38;67.59;100592.16;5089807;27;46262;-70
2022/06/20 03:04:01;;;;;;;;;29.00;27.33;;;;;20.41;67.06;100597.97;5079637;27;45495;-69
2022/06/20 03:06:35;;;;;;;;;29.00;25.67;;;;;20.47;66.89;100599.03;5078565;27;45509;-69
2022/06/20 03:09:01;;;;;;;;;27.67;26.33;;;;;20.49;67.32;100607.75;5099568;27;45403;-68
2022/06/20 03:11:30;;;;;;;;;30.00;30.00;;;;;20.42;66.59;100602.34;5114889;27;47089;-69
2022/06/20 03:13:59;;;;;;;;;38.00;31.67;;;;;20.55;66.07;100628.50;5099420;27;45271;-70
2022/06/20 03:16:27;;;;;;;;;29.67;29.67;;;;;20.66;66.16;100649.47;5096123;27;45327;-70
2022/06/20 03:18:55;;;;;;;;;29.00;26.67;;;;;20.39;66.69;100612.72;5099559;27;45554;-69
2022/06/20 03:21:25;;;;;;;;;27.33;26.33;;;;;20.33;66.00;100609.81;5098862;27;46125;-70
2022/06/20 03:23:51;;;;;;;;;31.00;26.67;;;;;20.73;65.75;100669.19;5099848;27;45404;-70
2022/06/20 03:26:24;;;;;;;;;25.67;25.00;;;;;20.73;65.67;100663.78;5095312;27;45489;-69
2022/06/20 03:28:50;;;;;;;;;35.00;29.67;;;;;20.79;65.32;100679.13;5089564;27;45233;-70
2022/06/20 03:31:16;;;;;;;;;28.67;25.00;;;;;20.51;65.43;100635.38;5079397;27;46891;-69
2022/06/20 03:33:42;;;;;;;;;32.67;28.67;;;;;20.77;64.48;100683.91;5079380;27;45280;-70
2022/06/20 03:36:15;;;;;;;;;27.00;25.33;;;;;20.61;65.04;100665.44;5079746;27;45449;-70
2022/06/20 03:38:43;;;;;;;;;27.67;25.00;;;;;20.79;65.41;100716.94;5079650;27;45497;-69
2022/06/20 03:41:12;;;;;;;;;28.00;26.67;;;;;20.66;65.31;100687.28;5078567;28;46564;-69
2022/06/20 03:43:39;;;;;;;;;27.33;26.00;;;;;20.75;64.56;100706.78;5076608;28;45348;-69
2022/06/20 03:46:15;;;;;;;;;25.67;23.33;;;;;20.67;64.58;100690.81;5079336;28;45388;-70
2022/06/20 03:48:53;;;;;;;;;26.67;25.33;;;;;20.39;64.06;100666.72;5079649;27;45239;-69
2022/06/20 03:51:25;;;;;;;;;25.00;22.67;;;;;20.76;64.01;100708.44;5079317;28;45822;-69
2022/06/20 03:54:05;;;;;;;;;24.67;24.67;;;;;19.86;63.64;100591.22;5077886;28;45375;-70
2022/06/20 03:56:38;;;;;;;;;26.33;25.33;;;;;20.54;63.74;100707.88;5079089;27;45389;-70
2022/06/20 03:59:24;;;;;;;;;29.67;29.67;;;;;20.21;63.85;100678.97;5077974;28;45335;-70
2022/06/20 04:01:49;;;;;;;;;30.00;26.67;;;;;20.41;63.87;100724.91;5079014;27;46758;-71
2022/06/20 04:04:24;;;;;;;;;29.33;28.00;;;;;20.36;63.72;100736.31;5078925;27;45404;-69
2022/06/20 04:06:55;;;;;;;;;32.67;29.33;;;;;20.36;64.17;100730.91;5078993;28;45440;-70
2022/06/20 04:12:25;;;;;;;;;24.33;22.33;;;;;20.37;63.95;100750.63;5078851;28;45754;-69
2022/06/20 04:15:03;;;;;;;;;27.67;24.33;;;;;20.18;63.85;100717.19;5078451;27;45494;-72
2022/06/20 04:20:44;;;;;;;;;25.00;22.33;;;;;19.99;64.02;100753.94;5094072;27;45583;-69
2022/06/20 04:23:17;;;;;;;;;27.67;26.67;;;;;19.78;64.46;100750.56;5095466;27;47494;-71
2022/06/20 04:25:49;;;;;;;;;29.00;25.00;;;;;19.11;64.25;100653.28;5098829;27;45401;-69
2022/06/20 04:28:27;;;;;;;;;29.00;28.67;;;;;19.75;64.29;100758.03;5096870;27;45315;-70
2022/06/20 04:31:02;;;;;;;;;32.33;30.33;;;;;19.61;64.37;100748.22;5098637;27;45593;-70
2022/06/20 04:33:36;;;;;;;;;35.00;33.67;;;;;19.60;64.78;100770.84;5094793;27;45636;-72
2022/06/20 04:36:15;;;;;;;;;30.00;29.00;;;;;19.51;64.63;100750.47;5089171;27;45349;-69
2022/06/20 04:38:51;;;;;;;;;28.33;27.33;;;;;19.34;64.74;100732.97;5078048;27;45364;-69
2022/06/20 04:41:34;;;;;;;;;33.33;29.33;;;;;19.37;64.35;100737.97;5059844;27;45659;-70
2022/06/20 04:44:09;;;;;;;;;31.33;31.33;;;;;19.24;64.57;100751.41;5077738;28;47386;-71
2022/06/20 04:46:52;;;;;;;;;31.00;29.67;;;;;19.21;65.01;100767.94;5076952;28;45677;-70
2022/06/20 04:49:18;;;;;;;;;29.67;25.33;;;;;19.33;64.53;100796.00;5076796;28;45492;-71
2022/06/20 04:51:47;;;;;;;;;29.67;28.67;;;;;17.65;64.94;100540.38;5078545;27;45469;-70
2022/06/20 04:54:18;;;;;;;;;31.00;29.67;;;;;19.12;64.91;100789.69;5077547;27;45612;-71
2022/06/20 04:56:44;;;;;;;;;32.67;28.67;;;;;19.02;65.33;100805.38;5076105;27;45434;-70
2022/06/20 04:59:19;;;;;;;;;31.67;27.33;;;;;18.90;65.38;100801.56;5077790;27;45330;-69
2022/06/20 05:01:45;;;;;;;;;27.00;26.33;;;;;18.95;65.83;100804.50;5077879;27;45538;-70
2022/06/20 05:04:10;;;;;;;;;26.00;25.67;;;;;18.43;65.51;100722.28;5077529;27;46162;-70
2022/06/20 05:06:39;;;;;;;;;26.67;25.33;;;;;18.82;65.33;100793.63;5077805;27;45256;-72
2022/06/20 05:09:17;;;;;;;;;26.67;25.67;;;;;18.84;65.50;100799.66;5078125;27;45315;-69
2022/06/20 05:11:49;;;;;;;;;27.00;26.00;;;;;19.06;65.45;100836.28;5078123;28;45526;-70
2022/06/20 05:14:22;;;;;;;;;30.33;28.33;;;;;18.81;65.63;100791.97;5080524;27;45419;-72
2022/06/20 05:16:51;;;;;;;;;30.00;27.00;;;;;19.08;65.38;100822.63;5095363;27;45378;-71
2022/06/20 05:19:25;;;;;;;;;24.00;21.67;;;;;19.08;65.61;100825.31;5096540;27;45361;-70
2022/06/20 05:21:55;;;;;;;;;26.67;24.00;;;;;18.29;64.83;100693.59;5089076;27;45561;-70
2022/06/20 05:24:25;;;;;;;;;26.00;25.33;;;;;18.81;65.22;100773.94;5069538;28;46142;-72
2022/06/20 05:26:54;;;;;;;;;35.00;30.00;;;;;19.07;65.06;100802.94;5075338;27;45355;-68
2022/06/20 05:29:28;;;;;;;;;31.67;27.33;;;;;19.00;65.05;100812.81;5077329;27;45562;-71
2022/06/20 05:31:55;;;;;;;;;28.00;26.33;;;;;18.93;64.87;100800.34;5091672;27;45403;-69
2022/06/20 05:34:26;;;;;;;;;29.67;27.67;;;;;19.01;65.55;100825.25;5097615;27;46456;-71
2022/06/20 05:37:05;;;;;;;;;23.33;22.33;;;;;18.94;65.53;100828.94;5097503;27;45353;-70
2022/06/20 05:39:41;;;;;;;;;27.33;25.33;;;;;18.50;65.99;100768.94;5087963;27;45494;-70
2022/06/20 05:42:11;;;;;;;;;26.00;22.33;;;;;18.86;65.07;100824.56;5088011;27;45367;-69
2022/06/20 05:44:37;;;;;;;;;25.00;24.00;;;;;18.82;65.46;100858.28;5097444;27;46489;-71
2022/06/20 05:47:08;;;;;;;;;25.33;23.33;;;;;18.51;65.44;100819.06;5097772;27;45302;-71
2022/06/20 05:49:42;;;;;;;;;22.67;21.67;;;;;18.65;65.17;100835.38;5097253;27;45535;-70
2022/06/20 05:52:11;;;;;;;;;29.67;28.00;;;;;18.87;65.14;100877.41;5075011;27;45570;-71
2022/06/20 05:54:43;;;;;;;;;21.33;20.67;;;;;18.70;65.06;100835.59;5076666;28;45654;-71
2022/06/20 05:57:16;;;;;;;;;25.33;24.00;;;;;18.48;65.14;100802.47;5075411;28;45343;-70
2022/06/20 06:00:16;;;;;;;;;21.00;20.00;;;;;18.89;65.24;100883.41;5076900;27;45318;-71
2022/06/20 06:02:47;;;;;;;;;23.00;21.67;;;;;18.84;65.22;100883.19;5087724;27;45490;-71
2022/06/20 06:05:16;;;;;;;;;27.67;21.67;;;;;18.83;65.63;100884.22;5076061;28;46559;-72
2022/06/20 06:07:59;;;;;;;;;26.33;24.00;;;;;18.85;65.22;100890.22;5076648;27;45534;-71
2022/06/20 06:10:36;;;;;;;;;26.33;24.33;;;;;18.69;65.61;100885.94;5077159;27;45546;-70
2022/06/20 06:13:12;;;;;;;;;21.33;20.33;;;;;18.59;66.05;100884.56;5077376;28;45418;-69
2022/06/20 06:19:03;;;;;;;;;25.00;23.67;;;;;18.65;65.97;100875.75;5097015;27;45464;-71
2022/06/20 06:21:29;;;;;;;;;24.33;21.00;;;;;18.72;64.66;100890.09;5086085;27;45501;-71
2022/06/20 06:23:57;;;;;;;;;26.00;23.33;;;;;18.64;64.94;100877.63;5090690;27;45566;-70
2022/06/20 06:26:23;;;;;;;;;20.67;19.67;;;;;18.91;64.78;100913.69;5096927;27;45532;-70
2022/06/20 06:28:50;;;;;;;;;22.00;21.67;;;;;18.22;64.38;100803.91;5096487;27;45412;-76
2022/06/20 06:31:25;;;;;;;;;22.00;18.00;;;;;18.78;64.89;100917.09;5088523;27;45334;-70
2022/06/20 06:34:11;;;;;;;;;22.33;20.00;;;;;18.28;64.58;100829.19;5076691;28;45334;-71
2022/06/20 06:36:48;;;;;;;;;22.33;16.33;;;;;18.64;64.89;100901.84;5076070;27;46947;-70
2022/06/20 06:39:20;;;;;;;;;21.67;18.33;;;;;18.40;64.47;100872.56;5075772;28;46644;-72
2022/06/20 06:41:49;;;;;;;;;24.67;21.67;;;;;18.66;64.92;100928.59;5076774;27;45690;-72
2022/06/20 06:44:22;;;;;;;;;22.67;18.67;;;;;18.47;64.84;100903.94;5074370;27;45505;-69
2022/06/20 06:46:53;;;;;;;;;20.00;18.67;;;;;18.50;65.00;100925.09;5076034;27;45909;-71
2022/06/20 06:49:24;;;;;;;;;24.33;20.67;;;;;18.59;65.39;100938.41;5075932;28;45315;-71
2022/06/20 06:51:56;;;;;;;;;21.00;18.67;;;;;18.27;64.74;100892.13;5071448;28;45490;-72
2022/06/20 06:54:27;;;;;;;;;19.33;16.67;;;;;18.60;64.89;100950.84;5056415;28;45430;-68
2022/06/20 06:57:21;;;;;;;;;17.00;15.00;;;;;18.48;65.06;100958.59;5069672;27;45647;-73
2022/06/20 07:00:13;;;;;;;;;18.00;18.00;;;;;18.50;65.14;100952.00;5069136;28;45514;-71
2022/06/20 07:02:43;;;;;;;;;20.67;19.00;;;;;18.54;64.97;100957.84;5089137;27;45486;-71
2022/06/20 07:05:14;;;;;;;;;18.33;17.33;;;;;18.01;65.20;100876.50;5075972;27;45256;-70
2022/06/20 07:07:46;;;;;;;;;18.00;17.00;;;;;17.92;65.27;100886.53;5091652;27;48916;-71
2022/06/20 07:10:36;;;;;;;;;19.33;15.67;;;;;18.38;65.26;100975.06;5096343;27;45702;-69
2022/06/20 07:13:12;;;;;;;;;18.00;17.67;;;;;18.33;64.89;100964.03;5092961;27;45346;-71
2022/06/20 07:15:39;;;;;;;;;15.67;15.67;;;;;17.72;64.70;100869.31;5096528;27;45463;-71
2022/06/20 07:18:24;;;;;;;;;19.33;17.33;;;;;17.73;64.78;100884.44;5099052;27;46078;-70
2022/06/20 07:20:50;;;;;;;;;11.67;11.67;;;;;17.68;64.50;100857.28;5099809;27;45323;-71
2022/06/20 07:23:17;;;;;;;;;15.67;15.67;;;;;18.32;64.46;100956.13;5100444;27;45503;-71
2022/06/20 07:25:46;;;;;;;;;20.00;19.67;;;;;18.19;64.44;100938.81;5100024;27;45482;-72
2022/06/20 07:28:38;;;;;;;;;19.33;18.00;;;;;18.42;64.89;100983.56;5099810;27;45706;-70
2022/06/20 07:31:21;;;;;;;;;11.00;10.00;;;;;18.34;64.08;100987.22;5116064;27;45335;-73
2022/06/20 07:33:52;;;;;;;;;17.33;16.00;;;;;17.79;64.58;100894.44;5098307;27;45406;-69
2022/06/20 07:36:24;;;;;;;;;20.00;17.33;;;;;18.36;64.11;100990.56;5098537;27;45226;-71
2022/06/20 07:38:59;;;;;;;;;21.00;21.00;;;;;17.67;64.33;100865.50;5099382;27;45824;-70
2022/06/20 07:41:54;;;;;;;;;19.67;17.67;;;;;18.19;64.66;100959.50;5098174;27;45539;-71
2022/06/20 07:44:31;;;;;;;;;20.00;17.67;;;;;18.40;64.26;100982.94;5112897;27;45696;-71
2022/06/20 07:47:03;;;;;;;;;18.67;17.67;;;;;18.31;64.05;100984.09;5099977;27;45394;-72
2022/06/20 07:49:36;;;;;;;;;21.00;19.00;;;;;18.38;64.46;101007.34;5115388;27;47644;-74
2022/06/20 07:52:13;;;;;;;;;19.67;19.33;;;;;18.02;64.33;100972.34;5099557;27;45362;-71
2022/06/20 07:54:50;;;;;;;;;18.67;17.67;;;;;18.29;64.54;101019.25;5099623;27;45370;-73
2022/06/20 07:57:23;;;;;;;;;17.00;15.33;;;;;18.27;64.70;101034.75;5099767;27;45369;-70
2022/06/20 08:00:01;;;;;;;;;14.67;11.67;;;;;18.22;64.91;101031.81;5099146;27;46550;-71
2022/06/20 08:02:36;;;;;;;;;24.67;21.67;;;;;18.30;64.81;101020.09;5099282;27;45457;-70
2022/06/20 08:05:06;;;;;;;;;20.67;19.33;;;;;17.99;64.82;100977.25;5099547;27;45332;-71
2022/06/20 08:07:40;;;;;;;;;20.33;20.33;;;;;18.08;65.05;101005.72;5099610;27;45514;-70
2022/06/20 08:10:23;;;;;;;;;10.67;10.67;;;;;17.90;64.70;100998.03;5098999;27;45756;-71
2022/06/20 08:13:02;;;;;;;;;20.00;19.67;;;;;18.08;65.26;101043.41;5097937;27;46504;-72
2022/06/20 08:15:33;;;;;;;;;20.67;18.33;;;;;17.75;66.13;101016.00;5115107;27;45396;-74
2022/06/20 08:18:00;;;;;;;;;22.50;21.00;;;;;17.77;65.86;101012.13;5099363;27;45381;-69
2022/06/20 08:20:30;;;;;;;;;18.00;18.00;;;;;17.90;65.89;101039.22;5098919;27;46298;-72
2022/06/20 08:23:04;;;;;;;;;23.67;22.00;;;;;18.01;66.39;101037.06;5097331;27;45541;-70
2022/06/20 08:25:41;;;;;;;;;17.67;16.67;;;;;18.03;65.58;101024.31;5099218;27;45453;-71
2022/06/20 08:28:17;;;;;;;;;19.67;19.67;;;;;18.18;65.66;101034.00;5114648;27;45332;-71
2022/06/20 08:30:51;;;;;;;;;21.00;19.67;;;;;17.58;65.12;100913.97;5098706;27;45975;-71
2022/06/20 08:33:27;;;;;;;;;19.67;18.67;;;;;17.20;64.69;100821.84;5099131;27;45286;-71
2022/06/20 08:36:03;;;;;;;;;23.67;21.33;;;;;18.32;64.47;101002.72;5098840;27;45339;-73
2022/06/20 08:38:48;;;;;;;;;25.67;23.67;;;;;18.51;64.39;101018.28;5100468;27;45418;-72
2022/06/20 08:41:59;;;;;;;;;24.00;18.67;;;;;18.59;63.83;101003.03;5099721;27;45670;-71
2022/06/20 08:44:25;;;;;;;;;21.33;18.33;;;;;18.76;63.19;101009.88;5098871;27;45468;-70
2022/06/20 08:47:08;;;;;;;;;19.67;19.33;;;;;18.77;63.44;101020.47;5098746;27;45330;-72
2022/06/20 08:49:45;;;;;;;;;22.00;20.67;;;;;18.87;62.93;101048.97;5099046;27;45588;-72
2022/06/20 08:52:29;;;;;;;;;25.00;22.67;;;;;18.92;63.09;101036.59;5114135;27;46828;-71
2022/06/20 08:55:32;;;;;;;;;20.67;20.33;;;;;18.98;62.74;101037.69;5114272;27;45359;-72
2022/06/20 08:58:05;;;;;;;;;22.67;22.67;;;;;18.93;62.32;101051.72;5098872;27;45426;-72
2022/06/20 09:00:59;;;;;;;;;24.00;23.00;;;;;18.59;62.68;101032.66;5114166;27;45286;-73
2022/06/20 09:03:40;;;;;;;;;26.33;24.33;;;;;18.69;62.84;101058.31;5098473;27;46059;-72
2022/06/20 09:06:24;;;;;;;;;23.00;21.67;;;;;18.69;62.90;101065.56;5114132;27;45625;-72
2022/06/20 09:09:05;;;;;;;;;23.00;20.00;;;;;18.74;63.01;101081.97;5098288;27;45483;-71
2022/06/20 09:12:01;;;;;;;;;21.33;21.00;;;;;18.28;62.88;101000.59;5114490;27;45353;-73
2022/06/20 09:14:38;;;;;;;;;21.67;20.33;;;;;18.69;62.88;101077.16;5098164;27;45746;-71
2022/06/20 09:17:10;;;;;;;;;25.33;20.33;;;;;18.68;63.00;101074.66;5098056;27;45326;-71
2022/06/20 09:19:49;;;;;;;;;25.33;21.00;;;;;18.21;63.30;101005.88;5098362;27;45461;-71
2022/06/20 09:22:17;;;;;;;;;19.00;19.00;;;;;18.52;63.12;101049.56;5098594;27;45363;-70
2022/06/20 09:25:01;;;;;;;;;19.67;18.67;;;;;18.53;63.39;101069.25;5098189;27;45652;-71
2022/06/20 09:27:45;;;;;;;;;20.33;17.33;;;;;18.67;63.39;101075.69;5098337;27;45215;-69
2022/06/20 09:30:17;;;;;;;;;22.67;21.00;;;;;18.43;63.38;101017.56;5080140;27;45840;-70
2022/06/20 09:33:18;;;;;;;;;24.67;24.67;;;;;18.91;62.14;101088.81;5076519;27;45613;-70
2022/06/20 09:35:43;;;;;;;;;19.33;19.33;;;;;18.97;62.27;101093.44;5077046;27;46804;-71
2022/06/20 09:38:33;;;;;;;;;20.67;20.00;;;;;18.95;62.41;101087.41;5092915;27;45492;-70
2022/06/20 09:41:06;;;;;;;;;20.67;19.67;;;;;19.02;62.44;101100.94;5091597;27;45335;-69
2022/06/20 09:44:05;;;;;;;;;23.33;22.00;;;;;18.96;62.07;101105.22;5077317;27;45361;-71
2022/06/20 09:46:41;;;;;;;;;27.00;22.00;;;;;18.90;61.94;101092.53;5093024;27;48456;-73
2022/06/20 09:49:16;;;;;;;;;31.67;21.67;;;;;18.98;62.28;101089.72;5077363;28;45509;-70
2022/06/20 09:52:09;;;;;;;;;19.00;18.67;;;;;18.66;62.02;101039.00;5077280;28;45392;-71
2022/06/20 09:54:52;;;;;;;;;16.67;16.67;;;;;18.51;61.56;100994.06;5080653;27;45560;-71
2022/06/20 09:57:42;;;;;;;;;22.67;20.00;;;;;19.32;61.65;101107.91;5097745;27;46588;-73
2022/06/20 10:00:07;;;;;;;;;26.67;23.00;;;;;19.42;60.87;101092.25;5097336;27;45507;-73
2022/06/20 10:02:48;;;;;;;;;20.33;20.00;;;;;19.46;61.00;101111.56;5097960;27;45275;-71
2022/06/20 10:05:28;;;;;;;;;24.33;21.00;;;;;19.58;60.39;101106.50;5097754;27;45493;-71
2022/06/20 10:08:02;;;;;;;;;20.00;20.00;;;;;19.56;60.28;101095.91;5113446;27;47180;-72
2022/06/20 10:10:35;;;;;;;;;23.00;21.67;;;;;19.53;60.40;101082.78;5100813;27;45362;-72
2022/06/20 10:13:18;;;;;;;;;23.67;19.33;;;;;19.70;60.30;101116.59;5077274;28;45320;-71
2022/06/20 10:15:57;;;;;;;;;27.33;23.67;;;;;19.37;59.72;101026.44;5075634;28;45439;-70
2022/06/20 10:18:37;;;;;;;;;24.00;22.67;;;;;19.82;60.25;101098.00;5076514;27;46407;-70
2022/06/20 10:21:11;;;;;;;;;20.33;20.33;;;;;18.56;59.53;100869.63;5092579;27;45434;-71
2022/06/20 10:24:08;;;;;;;;;23.00;21.67;;;;;20.07;59.33;101101.09;5093183;27;45541;-72
2022/06/20 10:26:39;;;;;;;;;26.00;23.67;;;;;20.13;58.73;101102.16;5075700;28;45353;-70
2022/06/20 10:29:33;;;;;;;;;18.33;17.33;;;;;20.07;59.03;101103.78;5075068;28;47759;-67
2022/06/20 10:31:58;;;;;;;;;29.67;28.00;;;;;20.10;59.26;101099.88;5069263;28;45301;-68
2022/06/20 10:34:58;;;;;;;;;27.33;22.33;;;;;20.06;59.04;101099.44;5076801;27;45201;-69
2022/06/20 10:37:48;;;;;;;;;27.33;27.00;;;;;20.10;59.63;101106.09;5076016;28;45317;-68
2022/06/20 10:40:26;;;;;;;;;29.00;26.00;;;;;20.13;59.52;101105.69;5076661;28;47033;-68
2022/06/20 10:43:11;;;;;;;;;29.33;24.67;;;;;20.28;59.48;101117.22;5075708;28;45657;-68
2022/06/20 10:45:44;;;;;;;;;26.67;25.33;;;;;20.42;58.34;101125.41;5075811;27;45371;-70
2022/06/20 10:48:22;;;;;;;;;28.00;26.67;;;;;20.55;58.26;101134.44;5084606;27;45560;-67
2022/06/20 10:51:13;;;;;;;;;28.00;26.00;;;;;20.74;57.84;101126.63;5075383;27;48802;-69
2022/06/20 10:53:51;;;;;;;;;23.00;22.00;;;;;20.70;57.68;101134.31;5087281;27;45386;-70
2022/06/20 10:56:46;;;;;;;;;31.33;26.67;;;;;20.40;57.44;101051.84;5080181;27;46719;-65
2022/06/20 10:59:33;;;;;;;;;25.67;25.67;;;;;20.94;57.22;101144.59;5080296;27;45565;-68
2022/06/20 11:02:37;;;;;;;;;26.33;26.33;;;;;20.94;56.89;101138.34;5095818;27;46548;-67
2022/06/20 11:05:15;;;;;;;;;31.00;29.00;;;;;20.87;57.16;101134.81;5082789;27;45481;-67
2022/06/20 11:07:52;;;;;;;;;30.00;28.67;;;;;20.91;56.65;101134.19;5077507;27;45634;-68
2022/06/20 11:10:36;;;;;;;;;32.33;29.00;;;;;20.91;56.49;101120.66;5097865;27;45590;-67
2022/06/20 11:13:16;;;;;;;;;22.67;22.67;;;;;21.10;56.57;101131.75;5088898;27;45544;-68
2022/06/20 11:16:02;;;;;;;;;25.33;22.33;;;;;21.02;56.54;101104.88;5078008;28;45446;-68
2022/06/20 11:18:59;;;;;;;;;27.67;25.67;;;;;21.29;56.40;101133.72;5078989;27;45379;-69
2022/06/20 11:21:53;;;;;;;;;35.33;30.33;;;;;21.35;55.24;101132.88;5078559;28;45510;-67
2022/06/20 11:24:33;;;;;;;;;27.00;24.67;;;;;21.35;55.70;101132.88;5077802;28;47709;-67
2022/06/20 11:27:07;;;;;;;;;23.33;23.00;;;;;21.47;55.55;101142.06;5059049;28;45241;-69
2022/06/20 11:29:48;;;;;;;;;27.33;26.67;;;;;21.62;55.61;101146.44;5058830;28;45244;-68
2022/06/20 11:32:38;;;;;;;;;27.00;24.67;;;;;21.74;55.46;101136.69;5059404;28;45224;-68
2022/06/20 11:35:13;;;;;;;;;18.67;18.67;;;;;21.81;54.82;101132.09;5069316;28;46696;-71
2022/06/20 11:38:01;;;;;;;;;24.33;20.00;;;;;21.94;55.06;101128.56;5077515;28;45546;-70
2022/06/20 11:40:39;;;;;;;;;24.33;20.00;;;;;21.89;54.15;101099.41;5078892;28;45552;-68
2022/06/20 11:43:49;;;;;;;;;20.67;20.67;;;;;22.27;53.40;101144.81;5079598;27;45250;-70
2022/06/20 11:46:38;;;;;;;;;22.33;20.67;;;;;22.28;53.19;101143.75;5076468;27;45968;-68
2022/06/20 11:49:14;;;;;;;;;25.33;23.00;;;;;22.32;53.49;101142.28;5079069;27;45338;-68
2022/06/20 11:51:48;;;;;;;;;22.00;22.00;;;;;21.79;53.73;101058.38;5079219;27;45525;-68
2022/06/20 11:54:53;;;;;;;;;21.33;20.67;;;;;22.39;53.43;101114.13;5073445;28;45417;-70
2022/06/20 11:57:33;;;;;;;;;24.67;19.33;;;;;22.52;53.08;101128.69;5073744;28;46182;-69
2022/06/20 12:00:03;;;;;;;;;19.33;19.33;;;;;22.23;52.66;101076.69;5078419;27;45262;-70